createdAt,value
2023-03-20T00:01:24.093Z,9.08
2023-03-20T00:03:51.391Z,9.04
2023-03-20T00:06:23.469Z,9.03
2023-03-20T00:08:52.551Z,9.07
2023-03-20T00:11:34.702Z,9.15
2023-03-20T00:14:04.053Z,9.14
2023-03-20T00:16:34.343Z,9.15
2023-03-20T00:19:00.965Z,9.21
2023-03-20T00:21:27.458Z,9.09
2023-03-20T00:23:55.394Z,9.02
2023-03-20T00:26:26.818Z,9.04
2023-03-20T00:28:53.211Z,9.02
2023-03-20T00:31:31.986Z,8.96
2023-03-20T00:34:02.042Z,8.93
2023-03-20T00:36:28.542Z,8.87
2023-03-20T00:38:56.334Z,8.74
2023-03-20T00:41:31.180Z,8.61
2023-03-20T00:44:02.334Z,8.71
2023-03-20T00:46:35.398Z,8.72
2023-03-20T00:49:01.900Z,8.57
2023-03-20T00:51:28.304Z,8.32
2023-03-20T00:53:54.778Z,8.17
2023-03-20T00:56:35.188Z,8.22
2023-03-20T00:59:03.335Z,8.36
2023-03-20T01:01:31.917Z,8.47
2023-03-20T01:03:59.892Z,8.55
2023-03-20T01:06:26.482Z,8.54
2023-03-20T01:08:52.882Z,8.47
2023-03-20T01:11:23.429Z,8.42
2023-03-20T01:13:52.188Z,8.36
2023-03-20T01:16:23.991Z,8.21
2023-03-20T01:18:51.575Z,8.14
2023-03-20T01:21:20.098Z,8.14
2023-03-20T01:23:47.951Z,8.10
2023-03-20T01:26:22.597Z,8.10
2023-03-20T01:28:50.646Z,8.20
2023-03-20T01:31:18.286Z,8.20
2023-03-20T01:33:45.622Z,8.22
2023-03-20T01:36:15.258Z,8.26
2023-03-20T01:38:42.235Z,8.30
2023-03-20T01:41:08.672Z,8.30
2023-03-20T01:43:36.028Z,8.26
2023-03-20T01:46:11.883Z,8.15
2023-03-20T01:48:50.190Z,8.12
2023-03-20T01:51:25.973Z,8.08
2023-03-20T01:54:12.896Z,8.10
2023-03-20T01:56:46.710Z,8.11
2023-03-20T01:59:28.855Z,8.05
2023-03-20T02:01:56.337Z,8.09
2023-03-20T02:04:29.001Z,8.02
2023-03-20T02:06:56.086Z,8.12
2023-03-20T02:09:22.622Z,8.12
2023-03-20T02:11:49.266Z,8.15
2023-03-20T02:14:15.963Z,8.04
2023-03-20T02:16:42.392Z,7.85
2023-03-20T02:19:21.667Z,7.83
2023-03-20T02:22:25.528Z,7.88
2023-03-20T02:25:15.769Z,7.93
2023-03-20T02:28:20.193Z,8.04
2023-03-20T02:31:14.508Z,8.10
2023-03-20T02:33:51.447Z,8.17
2023-03-20T02:36:54.855Z,8.23
2023-03-20T02:39:58.208Z,8.27
2023-03-20T02:42:44.781Z,8.26
2023-03-20T02:45:18.809Z,8.21
2023-03-20T02:48:08.378Z,8.21
2023-03-20T02:50:53.855Z,8.10
2023-03-20T02:53:41.877Z,8.04
2023-03-20T02:56:22.120Z,8.02
2023-03-20T02:59:03.936Z,8.14
2023-03-20T03:01:36.003Z,8.16
2023-03-20T03:04:08.794Z,8.11
2023-03-20T03:06:42.394Z,8.08
2023-03-20T03:09:22.055Z,8.06
2023-03-20T03:11:53.446Z,8.03
2023-03-20T03:14:26.823Z,8.05
2023-03-20T03:16:54.344Z,8.09
2023-03-20T03:19:24.956Z,8.15
2023-03-20T03:21:51.967Z,8.20
2023-03-20T03:24:40.941Z,8.26
2023-03-20T03:27:18.117Z,8.15
2023-03-20T03:29:49.463Z,8.13
2023-03-20T03:32:25.373Z,8.13
2023-03-20T03:34:52.056Z,8.04
2023-03-20T03:37:41.354Z,7.91
2023-03-20T03:40:08.865Z,7.77
2023-03-20T03:42:39.866Z,7.80
2023-03-20T03:45:13.875Z,7.77
2023-03-20T03:47:52.532Z,7.64
2023-03-20T03:50:27.368Z,7.69
2023-03-20T03:52:59.610Z,7.70
2023-03-20T03:55:35.110Z,7.75
2023-03-20T03:58:08.753Z,7.78
2023-03-20T04:00:35.966Z,7.78
2023-03-20T04:03:06.138Z,7.76
2023-03-20T04:05:36.790Z,7.80
2023-03-20T04:08:05.680Z,7.78
2023-03-20T04:10:32.084Z,7.66
2023-03-20T04:12:58.605Z,7.68
2023-03-20T04:15:27.526Z,7.78
2023-03-20T04:17:54.326Z,7.81
2023-03-20T04:20:20.813Z,7.89
2023-03-20T04:22:47.422Z,7.90
2023-03-20T04:25:20.460Z,7.87
2023-03-20T04:27:47.296Z,7.81
2023-03-20T04:30:13.826Z,7.63
2023-03-20T04:32:40.391Z,7.60
2023-03-20T04:35:07.412Z,7.57
2023-03-20T04:37:34.062Z,7.64
2023-03-20T04:40:00.654Z,7.66
2023-03-20T04:42:27.149Z,7.50
2023-03-20T04:44:53.653Z,7.25
2023-03-20T04:47:20.384Z,7.25
2023-03-20T04:49:46.815Z,7.28
2023-03-20T04:52:13.389Z,7.36
2023-03-20T04:54:39.793Z,7.32
2023-03-20T04:57:06.392Z,7.31
2023-03-20T04:59:32.803Z,7.22
2023-03-20T05:01:59.261Z,7.28
2023-03-20T05:04:26.283Z,7.11
2023-03-20T05:06:53.424Z,7.13
2023-03-20T05:09:20.033Z,7.06
2023-03-20T05:11:46.516Z,7.03
2023-03-20T05:14:13.400Z,7.11
2023-03-20T05:16:40.579Z,7.14
2023-03-20T05:19:07.282Z,7.18
2023-03-20T05:21:33.717Z,7.11
2023-03-20T05:24:00.416Z,6.83
2023-03-20T05:26:27.218Z,6.72
2023-03-20T05:28:53.970Z,6.69
2023-03-20T05:31:20.691Z,6.61
2023-03-20T05:33:47.869Z,6.53
2023-03-20T05:36:14.604Z,6.60
2023-03-20T05:38:41.530Z,6.70
2023-03-20T05:41:08.204Z,6.79
2023-03-20T05:43:35.335Z,6.88
2023-03-20T05:46:02.174Z,6.99
2023-03-20T05:48:28.778Z,6.99
2023-03-20T05:50:55.291Z,6.96
2023-03-20T05:53:21.903Z,6.88
2023-03-20T05:55:49.038Z,6.87
2023-03-20T05:58:15.542Z,6.83
2023-03-20T06:00:41.994Z,6.90
2023-03-20T06:03:08.795Z,6.98
2023-03-20T06:05:36.599Z,7.13
2023-03-20T06:08:03.746Z,7.20
2023-03-20T06:10:30.357Z,7.17
2023-03-20T06:12:58.570Z,7.27
2023-03-20T06:15:25.348Z,7.25
2023-03-20T06:17:51.815Z,7.32
2023-03-20T06:20:18.502Z,7.35
2023-03-20T06:22:46.229Z,7.38
2023-03-20T06:25:13.120Z,7.53
2023-03-20T06:27:39.789Z,7.59
2023-03-20T06:30:07.857Z,7.54
2023-03-20T06:32:34.752Z,7.59
2023-03-20T06:35:01.650Z,7.71
2023-03-20T06:37:28.584Z,7.73
2023-03-20T06:39:55.934Z,7.79
2023-03-20T06:42:22.455Z,7.89
2023-03-20T06:44:49.431Z,7.94
2023-03-20T06:47:16.372Z,7.97
2023-03-20T06:49:45.895Z,8.01
2023-03-20T06:52:17.938Z,8.08
2023-03-20T06:54:46.061Z,8.20
2023-03-20T06:57:15.297Z,8.28
2023-03-20T06:59:42.110Z,8.37
2023-03-20T07:02:10.772Z,8.42
2023-03-20T07:04:37.864Z,8.47
2023-03-20T07:07:04.716Z,8.51
2023-03-20T07:09:31.190Z,8.56
2023-03-20T07:11:57.717Z,8.55
2023-03-20T07:14:24.147Z,8.61
2023-03-20T07:16:51.085Z,8.69
2023-03-20T07:19:18.835Z,8.71
2023-03-20T07:21:45.659Z,8.77
2023-03-20T07:24:12.740Z,8.79
2023-03-20T07:26:41.114Z,8.79
2023-03-20T07:29:07.909Z,8.87
2023-03-20T07:31:34.562Z,8.89
2023-03-20T07:34:01.267Z,8.87
2023-03-20T07:36:27.949Z,8.90
2023-03-20T07:38:54.418Z,8.90
2023-03-20T07:41:21.258Z,8.86
2023-03-20T07:43:47.863Z,8.88
2023-03-20T07:46:14.481Z,8.97
2023-03-20T07:48:41.147Z,8.99
2023-03-20T07:51:08.193Z,9.02
2023-03-20T07:53:34.914Z,9.08
2023-03-20T07:56:01.507Z,9.06
2023-03-20T07:58:28.210Z,9.07
2023-03-20T08:00:57.785Z,9.10
2023-03-20T08:03:24.935Z,9.13
2023-03-20T08:05:51.562Z,9.12
2023-03-20T08:08:18.255Z,9.21
2023-03-20T08:10:44.807Z,9.26
2023-03-20T08:13:11.392Z,9.35
2023-03-20T08:15:38.375Z,9.42
2023-03-20T08:18:05.178Z,9.45
2023-03-20T08:20:31.831Z,9.50
2023-03-20T08:22:58.320Z,9.57
2023-03-20T08:25:24.789Z,9.58
2023-03-20T08:27:51.263Z,9.62
2023-03-20T08:30:17.803Z,9.66
2023-03-20T08:32:44.374Z,9.75
2023-03-20T08:35:25.762Z,9.94
2023-03-20T08:37:56.644Z,9.98
2023-03-20T08:40:23.683Z,10.09
2023-03-20T08:42:50.315Z,10.24
2023-03-20T08:45:18.383Z,10.19
2023-03-20T08:47:48.865Z,10.12
2023-03-20T08:50:16.228Z,10.24
2023-03-20T08:52:44.194Z,10.30
2023-03-20T08:55:12.101Z,10.24
2023-03-20T08:57:39.040Z,10.32
2023-03-20T09:00:07.460Z,10.31
2023-03-20T09:02:34.750Z,10.38
2023-03-20T09:05:01.487Z,10.43
2023-03-20T09:07:28.245Z,10.33
2023-03-20T09:09:54.763Z,10.29
2023-03-20T09:12:21.730Z,10.31
2023-03-20T09:14:48.273Z,10.31
2023-03-20T09:17:14.841Z,10.51
2023-03-20T09:19:44.366Z,10.67
2023-03-20T09:22:14.282Z,10.80
2023-03-20T09:24:41.117Z,10.88
2023-03-20T09:27:07.632Z,10.95
2023-03-20T09:29:34.126Z,10.85
2023-03-20T09:32:01.227Z,11.05
2023-03-20T09:34:27.708Z,11.33
2023-03-20T09:36:54.273Z,11.59
2023-03-20T09:39:20.861Z,11.65
2023-03-20T09:41:57.087Z,11.63
2023-03-20T09:44:39.006Z,11.74
2023-03-20T09:47:19.432Z,11.79
2023-03-20T09:50:09.670Z,12.10
2023-03-20T09:52:58.110Z,12.20
2023-03-20T09:55:32.850Z,12.00
2023-03-20T09:58:06.050Z,12.19
2023-03-20T10:00:36.192Z,12.42
2023-03-20T10:03:08.217Z,12.27
2023-03-20T10:05:45.602Z,12.44
2023-03-20T10:08:17.982Z,12.52
2023-03-20T10:11:06.621Z,12.76
2023-03-20T10:13:55.993Z,12.95
2023-03-20T10:16:47.881Z,12.58
2023-03-20T10:19:36.623Z,12.63
2023-03-20T10:22:29.159Z,13.14
2023-03-20T10:25:16.823Z,13.53
2023-03-20T10:27:49.429Z,13.70
2023-03-20T10:30:27.054Z,13.75
2023-03-20T10:32:56.653Z,13.83
2023-03-20T10:35:33.734Z,13.76
2023-03-20T10:38:18.275Z,13.55
2023-03-20T10:40:45.264Z,13.11
2023-03-20T10:43:19.750Z,13.03
2023-03-20T10:45:48.393Z,13.17
2023-03-20T10:48:23.626Z,13.32
2023-03-20T10:50:59.786Z,13.64
2023-03-20T10:53:41.905Z,13.72
2023-03-20T10:56:17.122Z,13.94
2023-03-20T10:58:48.085Z,13.94
2023-03-20T11:01:15.061Z,13.55
2023-03-20T11:03:41.643Z,13.51
2023-03-20T11:06:23.243Z,13.91
2023-03-20T11:08:52.532Z,14.21
2023-03-20T11:11:28.216Z,14.35
2023-03-20T11:13:55.524Z,14.33
2023-03-20T11:16:31.702Z,14.54
2023-03-20T11:19:06.313Z,14.73
2023-03-20T11:21:33.698Z,14.70
2023-03-20T11:24:01.643Z,14.68
2023-03-20T11:26:34.380Z,14.54
2023-03-20T11:29:01.064Z,14.40
2023-03-20T11:31:41.164Z,14.69
2023-03-20T11:34:07.565Z,14.92
2023-03-20T11:36:36.771Z,15.27
2023-03-20T11:39:15.463Z,14.95
2023-03-20T11:41:54.019Z,15.07
2023-03-20T11:44:33.038Z,15.05
2023-03-20T11:47:20.965Z,14.78
2023-03-20T11:50:00.293Z,14.83
2023-03-20T11:52:32.708Z,14.84
2023-03-20T11:55:03.459Z,14.90
2023-03-20T11:57:35.246Z,14.69
2023-03-20T12:00:24.336Z,14.52
2023-03-20T12:02:51.387Z,14.47
2023-03-20T12:05:37.303Z,14.25
2023-03-20T12:08:24.330Z,14.18
2023-03-20T12:10:59.400Z,14.07
2023-03-20T12:13:33.726Z,14.04
2023-03-20T12:16:07.970Z,13.94
2023-03-20T12:18:50.534Z,13.95
2023-03-20T12:21:27.025Z,14.09
2023-03-20T12:24:01.319Z,14.24
2023-03-20T12:26:36.180Z,14.35
2023-03-20T12:29:12.653Z,14.41
2023-03-20T12:32:02.466Z,14.37
2023-03-20T12:34:52.970Z,14.25
2023-03-20T12:37:19.906Z,14.23
2023-03-20T12:39:59.359Z,14.15
2023-03-20T12:42:42.912Z,14.05
2023-03-20T12:45:12.592Z,14.19
2023-03-20T12:48:04.633Z,14.23
2023-03-20T12:50:39.556Z,14.14
2023-03-20T12:53:20.416Z,14.14
2023-03-20T12:55:54.640Z,14.07
2023-03-20T12:58:24.115Z,14.02
2023-03-20T13:01:02.797Z,14.08
2023-03-20T13:03:38.304Z,14.24
2023-03-20T13:06:10.911Z,14.46
2023-03-20T13:09:00.627Z,14.59
2023-03-20T13:11:33.219Z,14.73
2023-03-20T13:14:11.385Z,14.80
2023-03-20T13:17:11.644Z,15.02
2023-03-20T13:19:55.020Z,15.14
2023-03-20T13:22:36.375Z,15.15
2023-03-20T13:25:12.375Z,15.07
2023-03-20T13:27:43.500Z,15.09
2023-03-20T13:30:16.657Z,15.01
2023-03-20T13:32:59.775Z,15.05
2023-03-20T13:35:42.105Z,15.04
2023-03-20T13:38:22.230Z,15.01
2023-03-20T13:40:56.319Z,15.14
2023-03-20T13:43:35.269Z,15.22
2023-03-20T13:46:07.168Z,15.26
2023-03-20T13:48:42.581Z,15.34
2023-03-20T13:51:34.514Z,15.46
2023-03-20T13:54:16.367Z,15.49
2023-03-20T13:56:53.556Z,15.37
2023-03-20T13:59:58.548Z,15.41
2023-03-20T14:02:33.645Z,15.42
2023-03-20T14:05:11.397Z,15.20
2023-03-20T14:07:42.593Z,15.12
2023-03-20T14:10:21.372Z,15.15
2023-03-20T14:13:20.771Z,15.18
2023-03-20T14:15:56.491Z,15.34
2023-03-20T14:18:28.527Z,15.48
2023-03-20T14:21:03.279Z,15.43
2023-03-20T14:23:35.088Z,15.44
2023-03-20T14:26:06.911Z,15.38
2023-03-20T14:28:44.619Z,15.33
2023-03-20T14:31:20.838Z,15.11
2023-03-20T14:33:58.751Z,15.17
2023-03-20T14:36:45.252Z,15.38
2023-03-20T14:39:27.045Z,15.27
2023-03-20T14:42:16.138Z,15.37
2023-03-20T14:44:48.542Z,15.44
2023-03-20T14:47:27.696Z,15.41
2023-03-20T14:50:03.505Z,15.37
2023-03-20T14:52:35.291Z,15.33
2023-03-20T14:55:20.010Z,15.33
2023-03-20T14:57:55.973Z,15.55
2023-03-20T15:00:26.557Z,15.44
2023-03-20T15:03:08.251Z,15.50
2023-03-20T15:05:37.994Z,15.49
2023-03-20T15:08:10.576Z,15.51
2023-03-20T15:10:47.068Z,15.51
2023-03-20T15:13:15.473Z,15.46
2023-03-20T15:15:54.045Z,15.44
2023-03-20T15:18:23.464Z,15.48
2023-03-20T15:20:50.425Z,15.51
2023-03-20T15:23:17.368Z,15.57
2023-03-20T15:25:49.611Z,15.54
2023-03-20T15:28:25.965Z,15.42
2023-03-20T15:30:57.945Z,15.37
2023-03-20T15:33:33.245Z,15.35
2023-03-20T15:36:19.005Z,15.36
2023-03-20T15:38:47.433Z,15.40
2023-03-20T15:41:34.204Z,15.40
2023-03-20T15:44:18.097Z,15.40
2023-03-20T15:47:00.755Z,15.39
2023-03-20T15:49:30.844Z,15.32
2023-03-20T15:52:01.709Z,15.25
2023-03-20T15:54:29.122Z,15.23
2023-03-20T15:56:58.363Z,15.23
2023-03-20T15:59:29.454Z,15.23
2023-03-20T16:01:57.746Z,15.14
2023-03-20T16:04:26.541Z,15.10
2023-03-20T16:07:01.079Z,15.09
2023-03-20T16:09:28.882Z,15.09
2023-03-20T16:11:57.046Z,15.12
2023-03-20T16:14:26.434Z,15.10
2023-03-20T16:16:56.175Z,15.11
2023-03-20T16:19:25.027Z,15.05
2023-03-20T16:21:55.916Z,15.01
2023-03-20T16:24:28.960Z,14.95
2023-03-20T16:26:56.766Z,14.91
2023-03-20T16:29:25.528Z,14.94
2023-03-20T16:32:26.864Z,14.96
2023-03-20T16:34:57.303Z,14.96
2023-03-20T16:37:37.004Z,14.93
2023-03-20T16:40:19.937Z,14.86
2023-03-20T16:42:46.777Z,14.75
2023-03-20T16:45:21.799Z,14.68
2023-03-20T16:47:49.488Z,14.72
2023-03-20T16:50:17.939Z,14.72
2023-03-20T16:52:51.092Z,14.67
2023-03-20T16:55:22.780Z,14.64
2023-03-20T16:57:52.122Z,14.64
2023-03-20T17:00:25.933Z,14.58
2023-03-20T17:03:00.858Z,14.47
2023-03-20T17:05:42.484Z,14.48
2023-03-20T17:08:13.850Z,14.43
2023-03-20T17:10:44.026Z,14.39
2023-03-20T17:13:10.642Z,14.37
2023-03-20T17:15:37.243Z,14.30
2023-03-20T17:18:04.389Z,14.22
2023-03-20T17:20:31.966Z,14.15
2023-03-20T17:22:58.485Z,14.05
2023-03-20T17:25:25.054Z,14.00
2023-03-20T17:27:51.742Z,13.97
2023-03-20T17:30:23.835Z,13.94
2023-03-20T17:32:51.031Z,13.91
2023-03-20T17:35:17.834Z,13.88
2023-03-20T17:37:44.843Z,13.79
2023-03-20T17:40:17.965Z,13.78
2023-03-20T17:42:44.614Z,13.73
2023-03-20T17:45:14.181Z,13.66
2023-03-20T17:47:42.446Z,13.62
2023-03-20T17:50:27.421Z,13.60
2023-03-20T17:52:54.947Z,13.54
2023-03-20T17:55:21.710Z,13.52
2023-03-20T17:57:49.293Z,13.49
2023-03-20T18:00:22.065Z,13.43
2023-03-20T18:02:48.609Z,13.38
2023-03-20T18:05:15.399Z,13.35
2023-03-20T18:07:41.864Z,13.32
2023-03-20T18:10:20.824Z,13.27
2023-03-20T18:12:47.378Z,13.26
2023-03-20T18:15:13.836Z,13.21
2023-03-20T18:17:40.267Z,13.19
2023-03-20T18:20:22.808Z,13.15
2023-03-20T18:22:49.851Z,13.11
2023-03-20T18:25:16.473Z,13.08
2023-03-20T18:27:43.974Z,13.03
2023-03-20T18:30:16.508Z,13.01
2023-03-20T18:32:42.951Z,12.95
2023-03-20T18:35:09.622Z,12.92
2023-03-20T18:37:36.396Z,12.89
2023-03-20T18:40:03.476Z,12.87
2023-03-20T18:42:29.887Z,12.83
2023-03-20T18:44:56.484Z,12.71
2023-03-20T18:47:23.988Z,12.53
2023-03-20T18:49:50.546Z,12.34
2023-03-20T18:52:16.920Z,12.19
2023-03-20T18:54:43.380Z,12.06
2023-03-20T18:57:13.543Z,11.95
2023-03-20T18:59:40.167Z,11.92
2023-03-20T19:02:07.044Z,11.97
2023-03-20T19:04:35.142Z,12.00
2023-03-20T19:07:01.806Z,11.96
2023-03-20T19:09:28.259Z,11.91
2023-03-20T19:11:54.725Z,11.82
2023-03-20T19:14:21.266Z,11.71
2023-03-20T19:16:47.729Z,11.63
2023-03-20T19:19:15.859Z,11.61
2023-03-20T19:21:42.405Z,11.42
2023-03-20T19:24:08.934Z,11.31
2023-03-20T19:26:37.023Z,11.33
2023-03-20T19:29:08.717Z,11.39
2023-03-20T19:31:35.855Z,11.47
2023-03-20T19:34:02.336Z,11.46
2023-03-20T19:36:34.495Z,11.44
2023-03-20T19:39:03.860Z,11.35
2023-03-20T19:41:32.176Z,11.17
2023-03-20T19:43:59.237Z,11.23
2023-03-20T19:46:42.758Z,11.29
2023-03-20T19:49:20.631Z,11.25
2023-03-20T19:51:48.436Z,11.29
2023-03-20T19:54:15.119Z,11.27
2023-03-20T19:56:41.608Z,11.27
2023-03-20T19:59:08.425Z,11.15
2023-03-20T20:01:36.157Z,11.10
2023-03-20T20:04:02.676Z,11.07
2023-03-20T20:06:32.195Z,10.90
2023-03-20T20:09:00.926Z,10.75
2023-03-20T20:11:27.567Z,10.74
2023-03-20T20:14:10.537Z,10.68
2023-03-20T20:16:40.264Z,10.67
2023-03-20T20:19:07.307Z,10.67
2023-03-20T20:24:20.950Z,10.55
2023-03-20T20:26:55.307Z,10.56
2023-03-20T20:29:29.837Z,10.38
2023-03-20T20:31:56.450Z,10.20
2023-03-20T20:37:51.637Z,10.29
2023-03-20T20:39:57.435Z,10.12
2023-03-20T20:42:23.951Z,10.17
2023-03-20T20:44:50.679Z,10.22
2023-03-20T20:47:17.490Z,10.24
2023-03-20T20:49:46.306Z,10.27
2023-03-20T20:52:13.114Z,10.30
2023-03-20T20:54:42.009Z,10.30
2023-03-20T20:57:14.221Z,10.30
2023-03-20T20:59:41.087Z,10.18
2023-03-20T21:02:12.844Z,10.09
2023-03-20T21:04:40.949Z,9.98
2023-03-20T21:07:11.549Z,9.73
2023-03-20T21:09:38.943Z,9.47
2023-03-20T21:12:05.704Z,9.39
2023-03-20T21:14:32.209Z,9.46
2023-03-20T21:17:01.730Z,9.36
2023-03-20T21:19:30.807Z,9.42
2023-03-20T21:21:57.377Z,9.51
2023-03-20T21:24:34.005Z,9.55
2023-03-20T21:27:03.540Z,9.67
2023-03-20T21:29:30.176Z,9.58
2023-03-20T21:31:56.702Z,9.32
2023-03-20T21:34:23.327Z,9.14
2023-03-20T21:36:51.017Z,9.08
2023-03-20T21:39:18.578Z,9.07
2023-03-20T21:41:45.978Z,9.03
2023-03-20T21:44:17.634Z,9.06
2023-03-20T21:47:33.206Z,9.16
2023-03-20T21:56:00.012Z,8.98
2023-03-20T21:58:44.477Z,8.95
2023-03-20T22:01:29.085Z,9.11
2023-03-20T22:04:10.567Z,9.10
2023-03-20T22:10:00.310Z,9.14
2023-03-20T22:23:45.678Z,9.21
2023-03-20T22:29:14.719Z,9.11
2023-03-20T22:31:55.267Z,9.00
2023-03-20T22:40:22.630Z,8.92
2023-03-20T22:42:52.975Z,8.68
2023-03-20T22:45:13.644Z,8.41
2023-03-20T22:47:40.635Z,8.36
2023-03-20T22:50:07.798Z,8.41
2023-03-20T22:52:48.087Z,8.51
2023-03-20T22:55:16.513Z,8.57
2023-03-20T22:57:52.796Z,8.56
2023-03-20T23:00:22.790Z,8.44
2023-03-20T23:02:50.009Z,8.40
2023-03-20T23:05:16.814Z,8.33
2023-03-20T23:07:44.451Z,8.21
2023-03-20T23:10:13.186Z,8.09
2023-03-20T23:12:40.907Z,8.26
2023-03-20T23:15:09.030Z,8.46
2023-03-20T23:17:35.617Z,8.54
2023-03-20T23:20:11.280Z,8.51
2023-03-20T23:22:38.713Z,8.41
2023-03-20T23:25:18.292Z,8.36
2023-03-20T23:27:50.369Z,8.31
2023-03-20T23:30:17.529Z,8.16
2023-03-20T23:32:44.044Z,8.23
2023-03-20T23:35:10.759Z,8.15
2023-03-20T23:37:37.320Z,7.90
2023-03-20T23:40:04.519Z,7.83
2023-03-20T23:42:31.317Z,7.84
2023-03-20T23:45:04.495Z,7.97
2023-03-20T23:47:44.862Z,8.03
2023-03-20T23:50:20.674Z,8.11
2023-03-20T23:53:01.122Z,8.18
2023-03-20T23:55:35.504Z,8.23
2023-03-20T23:58:02.232Z,8.22
